Time;durP1;ratioP1;P1;durP2;ratioP2;P2;SDS_P1;SDS_P2;PMS_P1;PMS_P2;Temp;Humidity;BMP_temperature;BMP_pressure;BME280_temperature;BME280_humidity;BME280_pressure;Samples;Min_cycle;Max_cycle;Signal;HPM_P1;HPM_P2
2024/01/10 00:01:34;;;;;;;30.45;16.65;;;-3.10;99.90;;;;;;5136555;27;20133;-84
2024/01/10 00:04:00;;;;;;;29.27;17.17;;;-4.90;99.90;;;;;;5134818;27;20040;-82
2024/01/10 00:06:25;;;;;;;33.58;18.98;;;-4.10;99.90;;;;;;5097843;27;20040;-84
2024/01/10 00:08:51;;;;;;;31.10;17.55;;;-4.90;99.90;;;;;;5133875;27;20047;-83
2024/01/10 00:11:17;;;;;;;30.60;18.20;;;-4.90;99.90;;;;;;5134077;28;20127;-83
2024/01/10 00:13:43;;;;;;;29.83;17.27;;;-4.80;99.90;;;;;;5115689;28;20137;-83
2024/01/10 00:16:11;;;;;;;32.03;18.45;;;-3.80;99.90;;;;;;5115506;27;20114;-82
2024/01/10 00:18:36;;;;;;;35.28;19.20;;;-4.80;99.90;;;;;;5133918;28;20399;-82
2024/01/10 00:21:02;;;;;;;36.10;19.33;;;-4.80;99.90;;;;;;5114131;28;20046;-82
2024/01/10 00:23:28;;;;;;;34.33;19.48;;;-4.80;99.90;;;;;;5112236;28;20043;-82
2024/01/10 00:25:54;;;;;;;38.20;19.52;;;-4.80;99.90;;;;;;5113811;28;20484;-83
2024/01/10 00:28:19;;;;;;;34.63;19.55;;;-4.80;99.90;;;;;;5097105;28;20071;-83
2024/01/10 00:30:47;;;;;;;33.40;19.50;;;-4.80;99.90;;;;;;5095001;28;20031;-82
2024/01/10 00:33:14;;;;;;;31.20;18.00;;;-4.80;99.90;;;;;;5103951;28;20086;-82
2024/01/10 00:35:39;;;;;;;32.35;19.05;;;-4.80;99.90;;;;;;5115423;27;20031;-82
2024/01/10 00:38:05;;;;;;;35.25;18.25;;;-4.90;99.90;;;;;;5133735;28;20107;-82
2024/01/10 00:40:31;;;;;;;35.53;19.83;;;-4.90;99.90;;;;;;5116715;27;20039;-82
2024/01/10 00:42:57;;;;;;;35.33;20.02;;;-4.90;99.90;;;;;;5119947;27;20043;-82
2024/01/10 00:45:22;;;;;;;32.72;18.65;;;-5.10;99.90;;;;;;5119756;27;20050;-82
2024/01/10 00:47:49;;;;;;;33.60;19.70;;;-5.00;99.90;;;;;;5137837;27;20043;-82
2024/01/10 00:50:15;;;;;;;35.92;20.73;;;-5.00;99.90;;;;;;5119404;27;20506;-82
2024/01/10 00:52:40;;;;;;;37.60;20.35;;;-4.90;99.90;;;;;;5119020;27;20047;-82
2024/01/10 00:55:06;;;;;;;37.25;20.63;;;-5.00;99.90;;;;;;5118681;27;20055;-82
2024/01/10 00:57:32;;;;;;;34.45;19.48;;;-5.00;99.90;;;;;;5101363;27;20039;-82
2024/01/10 00:59:58;;;;;;;41.17;21.33;;;-5.00;99.90;;;;;;5119165;27;20084;-82
2024/01/10 01:02:23;;;;;;;36.08;19.80;;;-5.00;99.90;;;;;;5137506;27;20407;-82
2024/01/10 01:04:49;;;;;;;36.72;21.40;;;-5.00;99.90;;;;;;5137532;27;20373;-82
2024/01/10 01:07:14;;;;;;;31.90;19.23;;;-5.00;99.90;;;;;;5118991;27;20099;-82
2024/01/10 01:09:40;;;;;;;40.30;21.60;;;-4.90;99.90;;;;;;5136038;27;20118;-83
2024/01/10 01:12:06;;;;;;;38.22;19.80;;;-5.00;99.90;;;;;;5114754;28;20504;-82
2024/01/10 01:14:32;;;;;;;36.15;20.45;;;-5.00;99.90;;;;;;5081554;28;20502;-82
2024/01/10 01:16:57;;;;;;;32.28;19.65;;;-5.00;99.90;;;;;;5081411;28;20561;-82
2024/01/10 01:19:23;;;;;;;30.27;18.55;;;-5.00;99.90;;;;;;5116593;28;20036;-82
2024/01/10 01:21:48;;;;;;;34.80;18.77;;;-5.00;99.90;;;;;;5116478;28;20039;-82
2024/01/10 01:24:14;;;;;;;30.58;18.80;;;-5.00;99.90;;;;;;5098287;28;20039;-82
2024/01/10 01:26:40;;;;;;;39.92;21.20;;;-4.90;99.90;;;;;;5114877;28;20050;-82
2024/01/10 01:29:05;;;;;;;33.85;18.70;;;-4.90;99.90;;;;;;5098444;28;20040;-82
2024/01/10 01:31:32;;;;;;;37.58;20.48;;;-4.80;99.90;;;;;;5096326;28;20043;-82
2024/01/10 01:33:57;;;;;;;33.75;19.52;;;-4.80;99.90;;;;;;5116489;28;20055;-82
2024/01/10 01:36:23;;;;;;;36.47;21.60;;;-4.80;99.90;;;;;;5098218;28;20402;-82
2024/01/10 01:38:49;;;;;;;34.72;19.73;;;-4.10;99.90;;;;;;5116330;28;20115;-82
2024/01/10 01:41:15;;;;;;;36.10;19.55;;;-4.80;99.90;;;;;;5116402;27;20046;-82
2024/01/10 01:43:40;;;;;;;41.42;21.05;;;-4.70;99.90;;;;;;5107831;28;20047;-82
2024/01/10 01:46:08;;;;;;;39.25;21.08;;;-4.70;99.90;;;;;;5116492;27;20040;-82
2024/01/10 01:48:34;;;;;;;37.72;21.35;;;-4.70;99.90;;;;;;5116009;28;20135;-82
2024/01/10 01:51:02;;;;;;;42.78;21.40;;;-4.70;99.90;;;;;;5097276;28;20074;-82
2024/01/10 01:53:29;;;;;;;41.05;20.58;;;-4.70;99.90;;;;;;5097517;28;20042;-82
2024/01/10 01:55:55;;;;;;;38.42;21.40;;;-4.80;99.90;;;;;;5115863;28;20051;-82
2024/01/10 01:58:22;;;;;;;36.08;20.80;;;-4.70;99.90;;;;;;5116114;28;20079;-82
2024/01/10 02:00:48;;;;;;;37.03;20.33;;;-4.00;99.90;;;;;;5116140;27;20498;-82
2024/01/10 02:03:14;;;;;;;35.55;19.60;;;-4.70;99.90;;;;;;5086683;28;20082;-83
2024/01/10 02:05:40;;;;;;;34.75;19.70;;;-4.40;99.90;;;;;;5115952;28;20032;-83
2024/01/10 02:08:06;;;;;;;30.98;18.15;;;-4.70;99.90;;;;;;5097503;28;20087;-83
2024/01/10 02:10:31;;;;;;;33.72;18.10;;;-4.80;99.90;;;;;;5097242;28;20048;-83
2024/01/10 02:12:57;;;;;;;32.65;18.15;;;-4.80;99.90;;;;;;5096906;28;20047;-83
2024/01/10 02:15:24;;;;;;;34.45;18.02;;;-4.80;99.90;;;;;;5113663;27;20031;-83
2024/01/10 02:17:50;;;;;;;31.02;17.60;;;-4.90;99.90;;;;;;5116933;27;20043;-83
2024/01/10 02:20:20;;;;;;;32.63;17.40;;;-4.30;99.90;;;;;;5134084;27;20383;-83
2024/01/10 02:22:47;;;;;;;33.22;18.25;;;-5.00;99.90;;;;;;5117606;27;20039;-83
2024/01/10 02:25:13;;;;;;;32.72;17.88;;;-4.10;99.90;;;;;;5117797;27;20043;-83
2024/01/10 02:27:40;;;;;;;32.90;18.30;;;-4.80;99.90;;;;;;5117598;27;20391;-83
2024/01/10 02:30:07;;;;;;;30.00;17.63;;;-5.00;99.90;;;;;;5136013;27;20126;-83
2024/01/10 02:32:33;;;;;;;32.78;18.92;;;-5.00;99.90;;;;;;5135771;27;20107;-83
2024/01/10 02:34:59;;;;;;;30.33;17.95;;;-5.10;99.90;;;;;;5133939;27;20035;-83
2024/01/10 02:37:25;;;;;;;33.97;18.77;;;-5.10;99.90;;;;;;5135859;27;20039;-83
2024/01/10 02:39:51;;;;;;;32.63;19.52;;;-5.10;99.90;;;;;;5117165;27;20085;-83
2024/01/10 02:42:16;;;;;;;39.42;19.00;;;-5.10;99.90;;;;;;5135992;27;20047;-83
2024/01/10 02:44:42;;;;;;;35.65;19.02;;;-5.10;99.90;;;;;;5135639;27;20440;-83
2024/01/10 02:47:08;;;;;;;35.90;19.98;;;-5.00;99.90;;;;;;5117149;27;20054;-83
2024/01/10 02:49:34;;;;;;;31.63;19.70;;;-5.10;99.90;;;;;;5129374;27;20499;-82
2024/01/10 02:52:00;;;;;;;38.70;21.90;;;-5.00;99.90;;;;;;5133900;27;20089;-83
2024/01/10 02:54:25;;;;;;;37.75;20.38;;;-5.00;99.90;;;;;;5106562;27;20040;-82
2024/01/10 02:56:51;;;;;;;38.33;19.88;;;-5.00;99.90;;;;;;5128950;27;20039;-82
2024/01/10 02:59:17;;;;;;;37.55;20.17;;;-5.00;99.90;;;;;;5135216;27;20188;-82
2024/01/10 03:01:43;;;;;;;36.55;20.67;;;-4.90;99.90;;;;;;5115417;27;20080;-81
2024/01/10 03:04:09;;;;;;;38.95;21.27;;;-5.00;99.90;;;;;;5088291;28;20055;-83
2024/01/10 03:06:35;;;;;;;35.10;20.38;;;-4.90;99.90;;;;;;5096463;28;20043;-82
2024/01/10 03:09:01;;;;;;;37.13;20.80;;;-4.90;99.90;;;;;;5096302;28;20561;-82
2024/01/10 03:11:27;;;;;;;36.50;19.17;;;-5.00;99.90;;;;;;5114267;28;20392;-82
2024/01/10 03:14:02;;;;;;;39.88;20.70;;;-5.00;99.90;;;;;;5101073;28;20044;-82
2024/01/10 03:16:28;;;;;;;37.45;21.75;;;-5.00;99.90;;;;;;5114556;28;20042;-82
2024/01/10 03:18:53;;;;;;;41.20;21.10;;;-3.90;99.90;;;;;;5114395;27;20122;-82
2024/01/10 03:21:24;;;;;;;37.40;20.20;;;-5.00;99.90;;;;;;5096125;28;20050;-82
2024/01/10 03:23:50;;;;;;;37.80;21.13;;;-5.00;99.90;;;;;;5096047;28;20044;-82
2024/01/10 03:26:16;;;;;;;38.50;22.05;;;-5.00;99.90;;;;;;5114450;28;20079;-82
2024/01/10 03:28:41;;;;;;;34.10;20.08;;;-5.00;99.90;;;;;;5114389;28;20059;-82
2024/01/10 03:31:07;;;;;;;35.90;19.73;;;-5.00;99.90;;;;;;5130269;27;20042;-81
2024/01/10 03:33:33;;;;;;;36.92;21.75;;;-5.20;99.90;;;;;;5133684;27;20051;-81
2024/01/10 03:35:58;;;;;;;37.25;20.30;;;-5.10;99.90;;;;;;5116309;27;20078;-82
2024/01/10 03:38:24;;;;;;;35.30;19.17;;;-5.10;99.90;;;;;;5134712;27;20082;-82
2024/01/10 03:40:50;;;;;;;32.25;19.83;;;-5.10;99.90;;;;;;5134368;27;20074;-83
2024/01/10 03:43:16;;;;;;;34.90;19.42;;;-5.10;99.90;;;;;;5116088;27;20039;-82
2024/01/10 03:45:42;;;;;;;35.03;21.27;;;-5.10;99.90;;;;;;5116319;27;20391;-83
2024/01/10 03:48:08;;;;;;;37.75;21.35;;;-5.00;99.90;;;;;;5114321;27;20056;-82
2024/01/10 03:50:34;;;;;;;33.83;20.27;;;-5.00;99.90;;;;;;5134157;27;20103;-81
2024/01/10 03:52:59;;;;;;;33.80;20.38;;;-5.00;99.90;;;;;;5116001;27;20043;-82
2024/01/10 03:55:25;;;;;;;36.15;20.65;;;-5.00;99.90;;;;;;5123491;27;20055;-82
2024/01/10 03:57:51;;;;;;;37.15;21.40;;;-5.00;99.90;;;;;;5113848;28;20050;-81
2024/01/10 04:00:17;;;;;;;40.35;22.63;;;-4.70;99.90;;;;;;5114025;28;20123;-82
2024/01/10 04:02:42;;;;;;;38.63;21.63;;;-5.00;99.90;;;;;;5095739;28;20122;-81
2024/01/10 04:05:09;;;;;;;38.28;20.90;;;-5.00;99.90;;;;;;5095397;28;20125;-82
2024/01/10 04:07:35;;;;;;;39.70;21.88;;;-5.00;99.90;;;;;;5132507;27;20058;-82
2024/01/10 04:10:02;;;;;;;37.10;21.02;;;-4.00;99.90;;;;;;5115683;27;20050;-81
2024/01/10 04:12:27;;;;;;;40.90;21.33;;;-4.90;99.90;;;;;;5133811;28;20045;-82
2024/01/10 04:14:53;;;;;;;40.13;20.85;;;-5.00;99.90;;;;;;5115422;28;20047;-82
2024/01/10 04:17:19;;;;;;;39.67;21.55;;;-5.00;99.90;;;;;;5132118;28;20043;-82
2024/01/10 04:19:44;;;;;;;33.08;18.88;;;-5.00;99.90;;;;;;5133925;28;20080;-82
2024/01/10 04:22:10;;;;;;;36.65;19.85;;;-5.00;99.90;;;;;;5133923;28;20479;-82
2024/01/10 04:24:36;;;;;;;34.78;19.35;;;-5.00;99.90;;;;;;5111349;28;20078;-81
2024/01/10 04:27:01;;;;;;;34.08;19.50;;;-5.00;99.90;;;;;;5113950;28;20082;-82
2024/01/10 04:29:27;;;;;;;34.55;21.00;;;-5.00;99.90;;;;;;5128374;27;20035;-81
2024/01/10 04:31:52;;;;;;;31.30;18.70;;;-5.00;99.90;;;;;;5113319;28;20046;-81
2024/01/10 04:34:18;;;;;;;34.97;20.27;;;-5.10;99.90;;;;;;5095224;28;20496;-82
2024/01/10 04:36:44;;;;;;;36.88;20.38;;;-5.10;99.90;;;;;;5125496;27;20054;-81
2024/01/10 04:39:10;;;;;;;34.25;20.45;;;-5.10;99.90;;;;;;5109040;28;20036;-82
2024/01/10 04:41:35;;;;;;;35.40;19.83;;;-5.10;99.90;;;;;;5094999;28;20039;-82
2024/01/10 04:44:01;;;;;;;35.63;20.45;;;-4.50;99.90;;;;;;5122307;27;20035;-81
2024/01/10 04:46:26;;;;;;;34.65;20.55;;;-5.20;99.90;;;;;;5132957;27;20388;-81
2024/01/10 04:48:52;;;;;;;35.60;20.50;;;-5.10;99.90;;;;;;5133470;27;20426;-81
2024/01/10 04:51:18;;;;;;;38.20;21.40;;;-5.10;99.90;;;;;;5133720;28;20480;-82
2024/01/10 04:53:43;;;;;;;39.53;22.42;;;-5.10;99.90;;;;;;5133062;28;20122;-82
2024/01/10 04:56:09;;;;;;;37.22;21.20;;;-5.10;99.90;;;;;;5134487;27;20051;-82
2024/01/10 04:58:36;;;;;;;37.80;21.13;;;-4.50;99.90;;;;;;5110500;28;20389;-81
2024/01/10 05:01:02;;;;;;;37.13;22.00;;;-5.10;99.90;;;;;;5103327;28;20133;-82
2024/01/10 05:03:28;;;;;;;37.78;21.55;;;-4.10;99.90;;;;;;5113146;28;20434;-81
2024/01/10 05:05:53;;;;;;;37.13;21.63;;;-5.10;99.90;;;;;;5125441;27;20047;-82
2024/01/10 05:08:20;;;;;;;41.15;24.05;;;-5.10;99.90;;;;;;5101572;28;20046;-82
2024/01/10 05:10:46;;;;;;;41.30;23.05;;;-5.10;99.90;;;;;;5113033;28;20086;-81
2024/01/10 05:13:12;;;;;;;45.50;24.58;;;-5.10;99.90;;;;;;5112772;28;20051;-81
2024/01/10 05:15:38;;;;;;;43.63;23.55;;;-5.10;99.90;;;;;;5116742;27;20119;-82
2024/01/10 05:18:04;;;;;;;44.10;23.77;;;-5.10;99.90;;;;;;5114988;28;20075;-82
2024/01/10 05:20:30;;;;;;;45.70;24.90;;;-5.00;99.90;;;;;;5114938;28;20039;-81
2024/01/10 05:22:58;;;;;;;43.15;23.30;;;-5.00;99.90;;;;;;5113359;28;20036;-82
2024/01/10 05:25:24;;;;;;;45.58;24.88;;;-4.90;99.90;;;;;;5112942;28;20050;-81
2024/01/10 05:27:50;;;;;;;40.80;24.38;;;-4.90;99.90;;;;;;5128622;27;20109;-81
2024/01/10 05:30:16;;;;;;;37.85;22.38;;;-5.00;99.90;;;;;;5137276;27;20067;-81
2024/01/10 05:32:44;;;;;;;41.60;23.52;;;-4.90;99.90;;;;;;5135400;27;20047;-81
2024/01/10 05:35:10;;;;;;;44.88;24.30;;;-4.90;99.90;;;;;;5118602;27;20082;-82
2024/01/10 05:37:36;;;;;;;42.15;23.25;;;-4.60;99.90;;;;;;5138055;27;20040;-81
2024/01/10 05:40:04;;;;;;;43.72;24.10;;;-4.80;99.90;;;;;;5136718;27;20122;-82
2024/01/10 05:42:30;;;;;;;42.00;24.52;;;-4.80;99.90;;;;;;5114862;27;20046;-81
2024/01/10 05:44:56;;;;;;;43.55;23.77;;;-4.90;99.90;;;;;;5116404;28;20040;-81
2024/01/10 05:47:21;;;;;;;43.08;23.17;;;-3.70;99.90;;;;;;5109017;27;20035;-81
2024/01/10 05:49:47;;;;;;;60.28;23.90;;;-4.90;99.90;;;;;;5157088;27;20039;-82
2024/01/10 05:52:13;;;;;;;39.78;22.40;;;-4.80;99.90;;;;;;5138540;27;20085;-82
2024/01/10 05:54:39;;;;;;;41.97;23.40;;;-4.90;99.90;;;;;;5129190;27;20035;-82
2024/01/10 05:57:05;;;;;;;40.47;23.23;;;-4.90;99.90;;;;;;5119646;27;20460;-82
2024/01/10 05:59:30;;;;;;;40.72;22.63;;;-4.90;99.90;;;;;;5114453;28;20134;-82
2024/01/10 06:01:58;;;;;;;37.65;22.27;;;-4.80;99.90;;;;;;5097568;28;20086;-81
2024/01/10 06:04:24;;;;;;;44.30;23.15;;;-4.00;99.90;;;;;;5116122;27;20040;-81
2024/01/10 06:06:50;;;;;;;39.70;22.73;;;-4.80;99.90;;;;;;5097436;28;20043;-82
2024/01/10 06:09:21;;;;;;;37.45;20.60;;;-4.50;99.90;;;;;;5132124;27;20376;-82
2024/01/10 06:11:47;;;;;;;40.15;21.60;;;-4.80;99.90;;;;;;5136141;27;20152;-81
2024/01/10 06:14:13;;;;;;;38.15;22.65;;;-4.90;99.90;;;;;;5136229;27;20118;-82
2024/01/10 06:16:38;;;;;;;38.88;21.40;;;-4.80;99.90;;;;;;5136545;27;20046;-81
2024/01/10 06:19:04;;;;;;;41.83;23.42;;;-4.80;99.90;;;;;;5109733;27;20078;-82
2024/01/10 06:21:30;;;;;;;38.95;21.83;;;-4.80;99.90;;;;;;5136158;27;20557;-81
2024/01/10 06:23:55;;;;;;;35.83;21.85;;;-4.80;99.90;;;;;;5117934;27;20042;-82
2024/01/10 06:26:22;;;;;;;36.28;20.73;;;-4.80;99.90;;;;;;5108603;28;20404;-82
2024/01/10 06:28:47;;;;;;;38.22;20.70;;;-4.80;99.90;;;;;;5115506;27;20052;-81
2024/01/10 06:31:13;;;;;;;34.05;19.27;;;-4.90;99.90;;;;;;5100478;27;20618;-81
2024/01/10 06:33:39;;;;;;;34.15;19.30;;;-5.00;99.90;;;;;;5141958;27;20085;-82
2024/01/10 06:36:05;;;;;;;34.00;19.83;;;-5.00;99.90;;;;;;5156606;27;20042;-82
2024/01/10 06:38:30;;;;;;;31.73;19.40;;;-5.00;99.90;;;;;;5137573;27;20047;-83
2024/01/10 06:40:56;;;;;;;34.90;19.98;;;-5.00;99.90;;;;;;5136242;27;20066;-81
2024/01/10 06:43:22;;;;;;;34.28;18.80;;;-5.00;99.90;;;;;;5139786;27;20046;-81
2024/01/10 06:45:48;;;;;;;34.85;20.45;;;-4.10;99.90;;;;;;5108639;28;20468;-81
2024/01/10 06:48:14;;;;;;;36.03;20.17;;;-5.00;99.90;;;;;;5096955;28;20130;-82
2024/01/10 06:50:40;;;;;;;34.50;19.67;;;-5.10;99.90;;;;;;5100618;27;20047;-82
2024/01/10 06:53:06;;;;;;;34.88;19.05;;;-5.10;99.90;;;;;;5135331;27;20483;-81
2024/01/10 06:55:32;;;;;;;39.03;20.65;;;-5.20;99.90;;;;;;5116880;27;20047;-82
2024/01/10 06:57:57;;;;;;;35.17;21.02;;;-5.10;99.90;;;;;;5116896;27;20039;-82
2024/01/10 07:00:23;;;;;;;33.38;19.63;;;-5.10;99.90;;;;;;5080888;28;20085;-82
2024/01/10 07:02:49;;;;;;;36.22;19.60;;;-5.10;99.90;;;;;;5130478;27;20046;-83
2024/01/10 07:05:15;;;;;;;41.10;21.50;;;-5.10;99.90;;;;;;5135402;27;20069;-82
2024/01/10 07:07:42;;;;;;;35.35;20.70;;;-5.10;99.90;;;;;;5131654;27;20390;-82
2024/01/10 07:10:08;;;;;;;40.17;20.67;;;-5.00;99.90;;;;;;5079326;28;20082;-82
2024/01/10 07:12:36;;;;;;;39.25;22.55;;;-5.00;99.90;;;;;;5100385;27;20541;-81
2024/01/10 07:15:05;;;;;;;37.97;20.70;;;-5.10;99.90;;;;;;5099221;28;20051;-82
2024/01/10 07:17:31;;;;;;;39.53;20.88;;;-5.00;99.90;;;;;;5134951;27;20399;-83
2024/01/10 07:19:56;;;;;;;37.20;19.77;;;-5.00;99.90;;;;;;5135004;27;20055;-82
2024/01/10 07:22:23;;;;;;;38.58;20.35;;;-5.00;99.90;;;;;;5101556;28;20042;-82
2024/01/10 07:24:49;;;;;;;40.20;21.70;;;-5.00;99.90;;;;;;5098201;27;20039;-82
2024/01/10 07:27:14;;;;;;;37.65;20.42;;;-5.00;99.90;;;;;;5121388;27;20026;-81
2024/01/10 07:29:40;;;;;;;39.55;20.38;;;-5.00;99.90;;;;;;5137198;27;20068;-82
2024/01/10 07:32:11;;;;;;;40.38;20.40;;;-5.00;99.90;;;;;;5116202;27;20140;-81
2024/01/10 07:34:40;;;;;;;40.72;20.60;;;-5.00;99.90;;;;;;5135579;27;20039;-81
2024/01/10 07:37:05;;;;;;;41.63;20.77;;;-5.00;99.90;;;;;;5127426;27;20115;-81
2024/01/10 07:39:31;;;;;;;38.28;19.88;;;-5.00;99.90;;;;;;5134530;27;20199;-81
2024/01/10 07:41:57;;;;;;;42.85;19.98;;;-5.00;99.90;;;;;;5129083;27;20036;-81
2024/01/10 07:44:24;;;;;;;43.08;19.83;;;-5.00;99.90;;;;;;5134968;27;20119;-80
2024/01/10 07:46:53;;;;;;;39.63;19.30;;;-5.00;99.90;;;;;;5110459;28;20078;-82
2024/01/10 07:49:21;;;;;;;44.45;19.70;;;-4.50;99.90;;;;;;5114335;27;20387;-81
2024/01/10 07:51:47;;;;;;;39.00;18.75;;;-5.00;99.90;;;;;;5113222;28;20035;-82
2024/01/10 07:54:13;;;;;;;41.25;19.55;;;-5.00;99.90;;;;;;5089646;28;20510;-82
2024/01/10 07:56:39;;;;;;;34.63;16.70;;;-5.00;99.90;;;;;;5131466;27;20049;-81
2024/01/10 07:59:05;;;;;;;38.78;19.05;;;-5.00;99.90;;;;;;5134251;27;20499;-82
2024/01/10 08:01:31;;;;;;;41.08;18.70;;;-5.00;99.90;;;;;;5134244;27;20051;-84
2024/01/10 08:03:56;;;;;;;43.15;18.73;;;-5.00;99.90;;;;;;5099837;27;20034;-81
2024/01/10 08:06:22;;;;;;;37.08;16.10;;;-5.00;99.90;;;;;;5112095;28;20047;-83
2024/01/10 08:08:48;;;;;;;38.40;16.23;;;-5.00;99.90;;;;;;5095806;28;20046;-82
2024/01/10 08:11:14;;;;;;;39.33;17.10;;;-5.00;99.90;;;;;;5106737;28;20530;-82
2024/01/10 08:13:40;;;;;;;36.08;14.95;;;-3.90;99.90;;;;;;5124899;28;20035;-82
2024/01/10 08:16:08;;;;;;;40.97;16.05;;;-2.40;99.90;;;;;;5147009;27;20471;-82
2024/01/10 08:18:34;;;;;;;38.78;16.80;;;-5.00;99.90;;;;;;5104351;27;20077;-81
2024/01/10 08:21:00;;;;;;;41.55;16.67;;;-5.00;99.90;;;;;;5134060;27;20122;-82
2024/01/10 08:23:26;;;;;;;36.45;15.93;;;-5.00;99.90;;;;;;5098765;28;20466;-82
2024/01/10 08:25:51;;;;;;;40.15;16.05;;;-5.00;99.90;;;;;;5127503;28;20114;-82
2024/01/10 08:28:17;;;;;;;38.03;17.08;;;-5.10;99.90;;;;;;5112713;28;20040;-82
2024/01/10 08:30:42;;;;;;;39.92;16.45;;;-2.80;99.90;;;;;;5078486;28;20039;-82
2024/01/10 08:33:08;;;;;;;43.13;15.75;;;-5.00;99.90;;;;;;5112945;28;20047;-82
2024/01/10 08:35:34;;;;;;;44.28;15.07;;;-4.90;99.90;;;;;;5118279;28;20047;-83
2024/01/10 08:37:59;;;;;;;33.03;14.77;;;-4.90;99.90;;;;;;5112904;28;20173;-83
2024/01/10 08:40:25;;;;;;;33.38;13.43;;;-4.80;99.90;;;;;;5113417;28;20040;-82
2024/01/10 08:42:52;;;;;;;39.70;14.32;;;-3.50;99.90;;;;;;5123636;27;20055;-83
2024/01/10 08:45:18;;;;;;;34.42;13.77;;;-4.70;99.90;;;;;;5094781;28;20079;-82
2024/01/10 08:47:43;;;;;;;33.08;14.27;;;-4.70;99.90;;;;;;5090959;27;20074;-82
2024/01/10 08:50:10;;;;;;;32.05;13.38;;;-4.60;99.90;;;;;;5115078;28;20098;-82
2024/01/10 08:52:39;;;;;;;35.22;13.95;;;-4.60;99.90;;;;;;5115254;28;20051;-82
2024/01/10 08:55:08;;;;;;;40.25;13.10;;;-4.30;99.90;;;;;;5132716;28;20043;-82
2024/01/10 08:57:34;;;;;;;36.85;13.43;;;-4.50;99.90;;;;;;5134759;27;20109;-82
2024/01/10 08:59:59;;;;;;;28.83;12.43;;;-4.50;99.90;;;;;;5135337;27;20117;-82
2024/01/10 09:02:27;;;;;;;32.03;11.95;;;-4.30;99.90;;;;;;5158115;27;20030;-82
2024/01/10 09:04:53;;;;;;;32.22;12.88;;;-4.40;99.90;;;;;;5158387;27;20053;-82
2024/01/10 09:07:21;;;;;;;38.03;12.50;;;-3.30;99.90;;;;;;5122786;27;20039;-82
2024/01/10 09:09:47;;;;;;;27.25;11.20;;;-4.30;99.90;;;;;;5123992;27;20045;-82
2024/01/10 09:12:12;;;;;;;33.17;12.27;;;-1.70;99.90;;;;;;5158159;27;20459;-82
2024/01/10 09:14:38;;;;;;;30.40;13.02;;;-4.20;99.90;;;;;;5110523;27;20356;-82
2024/01/10 09:17:04;;;;;;;27.98;11.25;;;-4.10;99.90;;;;;;5116868;28;20043;-82
2024/01/10 09:19:30;;;;;;;28.08;11.48;;;-2.40;99.90;;;;;;5128120;27;20482;-82
2024/01/10 09:21:57;;;;;;;32.03;11.90;;;-4.00;99.90;;;;;;5139263;27;20039;-82
2024/01/10 09:24:25;;;;;;;30.27;11.43;;;-4.00;99.90;;;;;;5158080;27;20056;-82
2024/01/10 09:26:52;;;;;;;30.95;12.13;;;-3.90;99.90;;;;;;5139376;27;20191;-82
2024/01/10 09:29:17;;;;;;;27.52;11.25;;;-3.90;99.90;;;;;;5127845;27;20036;-81
2024/01/10 09:31:43;;;;;;;25.38;11.30;;;-3.60;99.90;;;;;;5119422;27;20043;-82
2024/01/10 09:34:09;;;;;;;27.23;11.38;;;-3.10;99.90;;;;;;5137182;27;20176;-81
2024/01/10 09:36:35;;;;;;;27.83;11.35;;;-3.40;99.90;;;;;;5118785;27;20043;-82
2024/01/10 09:39:02;;;;;;;29.50;11.90;;;-3.20;99.90;;;;;;5136925;27;20055;-82
2024/01/10 09:41:29;;;;;;;33.90;13.60;;;-3.70;99.90;;;;;;5138171;27;20049;-82
2024/01/10 09:43:55;;;;;;;27.10;10.80;;;-3.60;99.90;;;;;;5117749;27;20391;-82
2024/01/10 09:46:22;;;;;;;28.20;11.43;;;-3.60;99.90;;;;;;5136767;27;20046;-82
2024/01/10 09:48:47;;;;;;;29.42;11.77;;;-3.50;99.90;;;;;;5116033;27;20103;-82
2024/01/10 09:51:13;;;;;;;30.25;11.15;;;-3.80;99.90;;;;;;5137755;27;20043;-82
2024/01/10 09:53:44;;;;;;;24.08;9.85;;;-3.80;99.90;;;;;;5136808;27;20496;-82
2024/01/10 09:56:10;;;;;;;28.52;11.93;;;-3.50;99.90;;;;;;5136411;27;20047;-82
2024/01/10 09:58:39;;;;;;;31.00;12.05;;;-3.40;99.90;;;;;;5136462;27;20126;-83
2024/01/10 10:01:06;;;;;;;28.70;11.55;;;-3.40;99.90;;;;;;5115953;27;20058;-82
2024/01/10 10:03:37;;;;;;;30.40;11.75;;;-3.30;99.90;;;;;;5122431;27;20044;-83
2024/01/10 10:06:04;;;;;;;32.03;12.48;;;-3.30;99.90;;;;;;5113227;27;20036;-82
2024/01/10 10:08:29;;;;;;;24.75;11.23;;;-3.30;99.90;;;;;;5115882;28;20349;-83
2024/01/10 10:10:55;;;;;;;23.83;10.32;;;-3.20;99.90;;;;;;5082697;27;20035;-82
2024/01/10 10:13:25;;;;;;;28.05;11.27;;;-3.20;99.90;;;;;;5135450;27;20051;-82
2024/01/10 10:16:02;;;;;;;21.08;9.98;;;-2.20;99.90;;;;;;5117799;27;20043;-82
2024/01/10 10:18:28;;;;;;;27.95;11.52;;;-3.10;99.90;;;;;;5134163;27;20047;-82
2024/01/10 10:21:24;;;;;;;26.45;11.05;;;-2.80;99.90;;;;;;5136122;27;20499;-83
2024/01/10 10:24:05;;;;;;;;;;;-3.10;99.90;;;;;;5070390;28;20056;-82
2024/01/10 10:26:34;;;;;;;22.60;10.05;;;-3.10;99.90;;;;;;5053331;28;20301;-83
2024/01/10 10:29:01;;;;;;;26.45;10.52;;;-3.00;99.90;;;;;;5036218;28;20061;-82
2024/01/10 10:31:27;;;;;;;22.48;10.25;;;-3.00;99.90;;;;;;5052834;28;20045;-84
2024/01/10 10:33:52;;;;;;;24.73;10.68;;;-3.00;99.90;;;;;;5064342;28;20135;-83
2024/01/10 10:36:20;;;;;;;27.67;10.88;;;-2.80;99.90;;;;;;5056105;28;20183;-83
2024/01/10 10:38:49;;;;;;;23.30;10.65;;;-3.00;99.90;;;;;;5072506;28;20495;-84
2024/01/10 10:41:15;;;;;;;23.08;10.23;;;-2.90;99.90;;;;;;5021506;28;20136;-82
2024/01/10 10:43:41;;;;;;;27.23;11.05;;;-2.90;99.90;;;;;;5039620;28;20045;-83
2024/01/10 10:46:14;;;;;;;21.95;9.77;;;-2.80;99.90;;;;;;5034959;28;20094;-82
2024/01/10 10:48:40;;;;;;;32.95;10.63;;;-2.80;99.90;;;;;;5034166;28;20076;-83
2024/01/10 10:51:11;;;;;;;23.20;9.32;;;-2.70;99.90;;;;;;5065460;28;20048;-83
2024/01/10 10:53:40;;;;;;;23.20;10.32;;;-2.10;99.90;;;;;;5052214;28;20061;-82
2024/01/10 10:56:07;;;;;;;25.13;9.63;;;-2.20;99.90;;;;;;5056885;28;20057;-83
2024/01/10 10:58:40;;;;;;;28.05;9.70;;;-2.60;99.90;;;;;;5035313;28;20036;-82
2024/01/10 11:01:08;;;;;;;24.77;9.95;;;-1.10;99.90;;;;;;5107032;28;20066;-83
2024/01/10 11:03:37;;;;;;;24.23;9.82;;;-2.60;99.90;;;;;;5109033;28;20058;-83
2024/01/10 11:06:04;;;;;;;20.75;9.85;;;-1.00;99.90;;;;;;5091254;28;20090;-82
2024/01/10 11:08:56;;;;;;;25.90;10.48;;;-2.50;99.90;;;;;;5114850;28;20042;-80
2024/01/10 11:11:37;;;;;;;22.23;10.00;;;-2.40;99.90;;;;;;5079020;28;20047;-80
2024/01/10 11:14:27;;;;;;;21.70;8.85;;;-2.40;99.90;;;;;;5090807;28;20066;-80
2024/01/10 11:17:23;;;;;;;24.38;10.27;;;-2.40;99.90;;;;;;5012571;28;20048;-82
2024/01/10 11:20:13;;;;;;;20.02;8.73;;;-2.30;99.90;;;;;;5015130;28;20096;-81
2024/01/10 11:22:58;;;;;;;22.95;9.88;;;-2.30;99.90;;;;;;4987467;28;20129;-82
2024/01/10 11:25:29;;;;;;;21.15;8.77;;;-2.20;99.90;;;;;;5011928;28;20046;-80
2024/01/10 11:27:55;;;;;;;21.77;9.60;;;-2.20;99.90;;;;;;5027347;28;20191;-84
2024/01/10 11:30:39;;;;;;;22.65;9.82;;;-1.30;99.90;;;;;;5051589;28;20136;-85
2024/01/10 11:33:36;;;;;;;26.17;9.13;;;-2.00;99.90;;;;;;5014770;28;20038;-83
2024/01/10 11:36:09;;;;;;;20.65;9.88;;;-2.10;99.90;;;;;;4999700;28;20052;-86
2024/01/10 11:38:51;;;;;;;21.65;8.50;;;-2.10;99.90;;;;;;5001459;28;20045;-84
2024/01/10 11:41:24;;;;;;;21.05;8.95;;;-2.00;99.90;;;;;;4998779;28;20073;-84
2024/01/10 11:44:08;;;;;;;20.23;8.63;;;-2.00;99.90;;;;;;5022976;28;20045;-83
2024/01/10 11:46:34;;;;;;;22.38;8.80;;;-1.10;99.90;;;;;;5034977;28;20505;-85
2024/01/10 11:49:00;;;;;;;19.80;9.02;;;-1.60;99.90;;;;;;5040031;28;20045;-85
2024/01/10 11:51:26;;;;;;;20.17;9.27;;;-2.00;99.90;;;;;;5026491;28;20143;-85
2024/01/10 11:53:54;;;;;;;20.63;8.88;;;-1.60;99.90;;;;;;5057544;28;20039;-84
2024/01/10 11:56:19;;;;;;;19.02;8.50;;;-1.90;99.90;;;;;;5107471;27;20445;-83
2024/01/10 11:59:00;;;;;;;22.15;9.27;;;-1.50;99.90;;;;;;5099840;27;20111;-85
2024/01/10 12:01:27;;;;;;;20.80;9.18;;;-1.30;99.90;;;;;;5104909;27;20127;-84
2024/01/10 12:03:54;;;;;;;19.02;8.35;;;-1.80;99.90;;;;;;5109755;27;20522;-83
2024/01/10 12:06:22;;;;;;;26.98;8.98;;;-1.80;99.90;;;;;;5106513;28;20066;-84
2024/01/10 12:08:48;;;;;;;21.60;8.82;;;-1.70;99.90;;;;;;5097054;27;20043;-83
2024/01/10 12:11:15;;;;;;;22.80;8.95;;;-0.80;99.90;;;;;;5098225;28;20364;-85
2024/01/10 12:13:41;;;;;;;19.98;8.45;;;0.00;99.90;;;;;;5115797;28;20499;-83
2024/01/10 12:16:07;;;;;;;21.30;8.82;;;-1.70;99.90;;;;;;5115864;28;20031;-83
2024/01/10 12:18:33;;;;;;;21.08;8.88;;;-1.60;99.90;;;;;;5122355;28;20044;-86
2024/01/10 12:21:00;;;;;;;23.77;9.70;;;-0.80;99.90;;;;;;5124285;28;20096;-84
2024/01/10 12:23:30;;;;;;;20.50;8.60;;;-1.60;99.90;;;;;;5098802;28;20099;-83
2024/01/10 12:25:56;;;;;;;18.80;8.25;;;-1.20;99.90;;;;;;5113310;28;20050;-84
2024/01/10 12:28:22;;;;;;;20.38;9.10;;;-1.50;99.90;;;;;;5115651;28;20043;-85